createdAt,value
2022-11-16T00:00:05.000Z,0
2022-11-16T00:01:19.743Z,0
2022-11-16T00:02:33.100Z,0
2022-11-16T00:03:47.374Z,0
2022-11-16T00:05:01.785Z,0
2022-11-16T00:06:16.114Z,0
2022-11-16T00:07:30.391Z,0
2022-11-16T00:08:44.673Z,0
2022-11-16T00:09:59.073Z,0
2022-11-16T00:11:13.411Z,0
2022-11-16T00:12:27.674Z,0
2022-11-16T00:13:41.970Z,0
2022-11-16T00:14:56.367Z,0
2022-11-16T00:16:10.704Z,0
2022-11-16T00:17:24.968Z,0
2022-11-16T00:18:39.251Z,0
2022-11-16T00:19:53.663Z,0
2022-11-16T00:21:07.996Z,0
2022-11-16T00:22:22.272Z,0
2022-11-16T00:23:36.553Z,0
2022-11-16T00:24:50.949Z,0
2022-11-16T00:26:05.277Z,0
2022-11-16T00:27:19.563Z,0
2022-11-16T00:28:33.834Z,0
2022-11-16T00:29:48.258Z,0
2022-11-16T00:31:02.574Z,0
2022-11-16T00:32:16.858Z,0
2022-11-16T00:33:31.194Z,0
2022-11-16T00:34:45.599Z,0
2022-11-16T00:35:59.937Z,0
2022-11-16T00:37:13.282Z,0
2022-11-16T00:38:27.561Z,0
2022-11-16T00:39:41.976Z,0
2022-11-16T00:40:56.298Z,0
2022-11-16T00:42:10.569Z,0
2022-11-16T00:43:24.854Z,0
2022-11-16T00:44:39.270Z,0
2022-11-16T00:45:53.592Z,0
2022-11-16T00:47:07.000Z,0
2022-11-16T00:48:22.142Z,0
2022-11-16T00:49:36.568Z,0
2022-11-16T00:50:50.874Z,0
2022-11-16T00:52:05.166Z,0
2022-11-16T00:53:19.445Z,0
2022-11-16T00:54:33.861Z,0
2022-11-16T00:55:48.185Z,0
2022-11-16T00:57:02.455Z,0
2022-11-16T00:58:16.733Z,0
2022-11-16T00:59:31.146Z,0
2022-11-16T01:00:45.458Z,0
2022-11-16T01:01:59.742Z,0
2022-11-16T01:03:14.034Z,0
2022-11-16T01:04:28.431Z,0
2022-11-16T01:05:42.750Z,0
2022-11-16T01:06:57.033Z,0
2022-11-16T01:08:11.381Z,0
2022-11-16T01:09:25.788Z,0
2022-11-16T01:10:40.126Z,0
2022-11-16T01:11:53.471Z,0
2022-11-16T01:13:07.747Z,0
2022-11-16T01:14:22.170Z,0
2022-11-16T01:15:36.486Z,0
2022-11-16T01:16:50.766Z,0
2022-11-16T01:18:05.044Z,0
2022-11-16T01:19:19.457Z,0
2022-11-16T01:20:33.784Z,0
2022-11-16T01:21:48.061Z,0
2022-11-16T01:23:02.340Z,0
2022-11-16T01:24:16.754Z,0
2022-11-16T01:25:31.069Z,0
2022-11-16T01:26:45.357Z,0
2022-11-16T01:27:59.638Z,0
2022-11-16T01:29:14.035Z,0
2022-11-16T01:30:28.310Z,0
2022-11-16T01:31:42.596Z,0
2022-11-16T01:32:56.864Z,0
2022-11-16T01:34:11.284Z,0
2022-11-16T01:35:25.607Z,0
2022-11-16T01:36:39.885Z,0
2022-11-16T01:37:54.164Z,0
2022-11-16T01:39:08.561Z,0
2022-11-16T01:40:22.904Z,0
2022-11-16T01:41:37.181Z,0
2022-11-16T01:42:51.512Z,0
2022-11-16T01:44:05.911Z,0
2022-11-16T01:45:20.255Z,0
2022-11-16T01:46:33.600Z,0
2022-11-16T01:47:47.875Z,0
2022-11-16T01:49:02.294Z,0
2022-11-16T01:50:16.616Z,0
2022-11-16T01:51:30.888Z,0
2022-11-16T01:52:45.172Z,0
2022-11-16T01:53:59.573Z,0
2022-11-16T01:55:13.912Z,0
2022-11-16T01:56:28.195Z,0
2022-11-16T01:57:42.459Z,0
2022-11-16T01:58:56.885Z,0
2022-11-16T02:00:11.197Z,0
2022-11-16T02:01:25.485Z,0
2022-11-16T02:02:39.763Z,0
2022-11-16T02:03:54.164Z,0
2022-11-16T02:05:08.499Z,0
2022-11-16T02:06:22.775Z,0
2022-11-16T02:07:37.058Z,0
2022-11-16T02:08:51.454Z,0
2022-11-16T02:10:05.776Z,0
2022-11-16T02:11:20.066Z,0
2022-11-16T02:12:34.353Z,0
2022-11-16T02:13:48.751Z,0
2022-11-16T02:15:03.086Z,0
2022-11-16T02:16:17.362Z,0
2022-11-16T02:18:46.107Z,0
2022-11-16T02:20:00.447Z,0
2022-11-16T02:21:13.801Z,0
2022-11-16T02:22:28.076Z,0
2022-11-16T02:23:42.488Z,0
2022-11-16T02:24:56.797Z,0
2022-11-16T02:26:11.088Z,0
2022-11-16T02:27:25.372Z,0
2022-11-16T02:28:39.773Z,0
2022-11-16T02:29:54.093Z,0
2022-11-16T02:31:08.382Z,0
2022-11-16T02:32:22.653Z,0
2022-11-16T02:33:37.068Z,0
2022-11-16T02:34:51.389Z,0
2022-11-16T02:36:05.666Z,0
2022-11-16T02:37:19.956Z,0
2022-11-16T02:38:34.305Z,0
2022-11-16T02:39:48.636Z,0
2022-11-16T02:41:02.898Z,0
2022-11-16T02:42:17.189Z,0
2022-11-16T02:43:31.590Z,0
2022-11-16T02:44:45.912Z,0
2022-11-16T02:46:00.191Z,0
2022-11-16T02:47:14.472Z,0
2022-11-16T02:48:28.895Z,0
2022-11-16T02:49:43.206Z,0
2022-11-16T02:50:57.487Z,0
2022-11-16T02:52:11.825Z,0
2022-11-16T02:53:26.233Z,0
2022-11-16T02:54:40.573Z,0
2022-11-16T02:55:53.930Z,0
2022-11-16T02:57:08.206Z,0
2022-11-16T02:58:22.606Z,0
2022-11-16T02:59:36.944Z,0
2022-11-16T03:00:51.217Z,0
2022-11-16T03:02:05.505Z,0
2022-11-16T03:03:19.900Z,0
2022-11-16T03:04:34.224Z,0
2022-11-16T03:05:48.499Z,0
2022-11-16T03:07:02.789Z,0
2022-11-16T03:08:17.196Z,0
2022-11-16T03:09:31.525Z,0
2022-11-16T03:10:45.799Z,0
2022-11-16T03:12:00.087Z,0
2022-11-16T03:13:14.496Z,0
2022-11-16T03:14:28.811Z,0
2022-11-16T03:16:57.366Z,0
2022-11-16T03:18:11.774Z,0
2022-11-16T03:19:26.104Z,0
2022-11-16T03:20:40.384Z,0
2022-11-16T03:21:54.663Z,0
2022-11-16T03:23:09.062Z,0
2022-11-16T03:24:23.402Z,0
2022-11-16T03:25:37.677Z,0
2022-11-16T03:26:52.017Z,0
2022-11-16T03:28:06.421Z,0
2022-11-16T03:29:20.764Z,0
2022-11-16T03:30:34.119Z,0
2022-11-16T03:31:48.392Z,0
2022-11-16T03:33:02.788Z,0
2022-11-16T03:34:17.127Z,0
2022-11-16T03:35:31.393Z,0
2022-11-16T03:36:45.689Z,0
2022-11-16T03:38:00.083Z,0
2022-11-16T03:39:14.411Z,0
2022-11-16T03:40:28.695Z,0
2022-11-16T03:41:42.978Z,0
2022-11-16T03:42:57.384Z,0
2022-11-16T03:44:11.705Z,0
2022-11-16T03:45:25.986Z,0
2022-11-16T03:46:40.265Z,0
2022-11-16T03:47:54.664Z,0
2022-11-16T03:49:09.008Z,0
2022-11-16T03:50:23.284Z,0
2022-11-16T03:51:37.565Z,0
2022-11-16T03:52:51.970Z,0
2022-11-16T03:54:06.297Z,0
2022-11-16T03:55:20.577Z,0
2022-11-16T03:56:34.853Z,0
2022-11-16T03:59:03.578Z,0
2022-11-16T04:00:17.853Z,0
2022-11-16T04:01:32.206Z,0
2022-11-16T04:02:46.608Z,0
2022-11-16T04:04:00.953Z,0
2022-11-16T04:05:15.287Z,0
2022-11-16T04:06:28.626Z,0
2022-11-16T04:07:43.051Z,0
2022-11-16T04:08:57.365Z,0
2022-11-16T04:10:11.641Z,0
2022-11-16T04:11:25.922Z,0
2022-11-16T04:12:40.337Z,0
2022-11-16T04:13:54.662Z,0
2022-11-16T04:15:08.937Z,0
2022-11-16T04:17:37.631Z,0
2022-11-16T04:18:51.944Z,0
2022-11-16T04:20:06.236Z,0
2022-11-16T04:21:20.510Z,0
2022-11-16T04:22:34.922Z,0
2022-11-16T04:23:49.245Z,0
2022-11-16T04:25:03.522Z,0
2022-11-16T04:26:17.797Z,0
2022-11-16T04:27:32.219Z,0
2022-11-16T04:28:46.530Z,0
2022-11-16T04:30:00.818Z,0
2022-11-16T04:31:15.092Z,0
2022-11-16T04:32:29.505Z,0
2022-11-16T04:33:43.817Z,0
2022-11-16T04:34:58.117Z,0
2022-11-16T04:36:12.390Z,0
2022-11-16T04:37:26.850Z,0
2022-11-16T04:38:41.197Z,0
2022-11-16T04:39:54.536Z,0
2022-11-16T04:41:08.830Z,0
2022-11-16T04:42:23.000Z,0
2022-11-16T04:43:37.557Z,0
2022-11-16T04:44:51.836Z,0
2022-11-16T04:46:06.117Z,0
2022-11-16T04:47:20.525Z,0
2022-11-16T04:48:34.843Z,0
2022-11-16T04:49:49.120Z,0
2022-11-16T04:51:03.401Z,0
2022-11-16T04:52:17.818Z,0
2022-11-16T04:53:32.129Z,0
2022-11-16T04:54:46.414Z,0
2022-11-16T04:56:00.691Z,0
2022-11-16T04:57:15.098Z,0
2022-11-16T04:58:29.434Z,0
2022-11-16T04:59:43.714Z,0
2022-11-16T05:00:57.993Z,0
2022-11-16T05:02:12.405Z,0
2022-11-16T05:03:26.715Z,0
2022-11-16T05:04:41.001Z,0
2022-11-16T05:05:55.275Z,0
2022-11-16T05:07:09.687Z,0
2022-11-16T05:08:24.012Z,0
2022-11-16T05:09:38.302Z,0
2022-11-16T05:10:52.645Z,0
2022-11-16T05:12:07.033Z,0
2022-11-16T05:13:21.379Z,0
2022-11-16T05:14:35.727Z,0
2022-11-16T05:15:49.076Z,0
2022-11-16T05:17:03.474Z,0
2022-11-16T05:18:17.788Z,0
2022-11-16T05:19:32.071Z,0
2022-11-16T05:20:46.364Z,0
2022-11-16T05:22:00.764Z,0
2022-11-16T05:23:15.086Z,0
2022-11-16T05:24:29.379Z,0
2022-11-16T05:25:43.644Z,0
2022-11-16T05:26:58.013Z,0
2022-11-16T05:28:12.319Z,0
2022-11-16T05:29:26.618Z,0
2022-11-16T05:30:40.890Z,0
2022-11-16T05:31:55.291Z,0
2022-11-16T05:33:09.629Z,0
2022-11-16T05:34:23.909Z,0
2022-11-16T05:35:38.191Z,0
2022-11-16T05:36:52.598Z,0
2022-11-16T05:38:06.922Z,0
2022-11-16T05:39:21.195Z,0
2022-11-16T05:40:35.464Z,0
2022-11-16T05:41:49.887Z,0
2022-11-16T05:43:04.195Z,0
2022-11-16T05:44:18.475Z,0
2022-11-16T05:45:32.766Z,0
2022-11-16T05:46:47.239Z,0
2022-11-16T05:48:01.566Z,0
2022-11-16T05:49:14.916Z,0
2022-11-16T05:50:29.202Z,0
2022-11-16T05:51:43.610Z,0
2022-11-16T05:52:57.927Z,0
2022-11-16T05:55:26.486Z,0
2022-11-16T05:56:40.900Z,0
2022-11-16T05:57:55.224Z,0
2022-11-16T05:59:09.505Z,0
2022-11-16T06:00:23.786Z,0
2022-11-16T06:01:38.200Z,0
2022-11-16T06:02:52.507Z,0
2022-11-16T06:04:06.794Z,0
2022-11-16T06:09:04.093Z,0
2022-11-16T06:10:18.364Z,0
2022-11-16T06:11:32.783Z,0
2022-11-16T06:12:47.103Z,0
2022-11-16T06:14:01.383Z,0
2022-11-16T06:15:15.665Z,0
2022-11-16T06:20:12.780Z,0
2022-11-16T06:22:40.405Z,0
2022-11-16T06:23:53.799Z,0
2022-11-16T06:26:21.480Z,0
2022-11-16T06:27:35.756Z,0
2022-11-16T06:28:50.030Z,0
2022-11-16T06:30:03.335Z,0
2022-11-16T06:31:17.574Z,0
2022-11-16T06:32:31.811Z,0
2022-11-16T06:33:46.021Z,0
2022-11-16T06:35:00.256Z,0
2022-11-16T06:36:14.562Z,0
2022-11-16T06:37:28.804Z,0
2022-11-16T06:39:57.252Z,0
2022-11-16T06:41:11.479Z,0
2022-11-16T06:42:25.772Z,0
2022-11-16T06:43:40.017Z,0
2022-11-16T06:44:54.242Z,0
2022-11-16T06:46:08.463Z,0
2022-11-16T06:47:22.705Z,0
2022-11-16T06:48:36.993Z,0
2022-11-16T06:49:51.247Z,0
2022-11-16T06:51:05.460Z,0
2022-11-16T06:52:19.682Z,0
2022-11-16T06:53:33.924Z,0
2022-11-16T06:54:48.219Z,0
2022-11-16T06:56:02.447Z,0
2022-11-16T06:57:16.692Z,0
2022-11-16T06:58:30.914Z,0
2022-11-16T06:59:45.128Z,0
2022-11-16T07:00:59.497Z,0
2022-11-16T07:02:13.785Z,0
2022-11-16T07:03:27.067Z,0
2022-11-16T07:04:41.300Z,0
2022-11-16T07:05:55.603Z,0
2022-11-16T07:07:09.851Z,5
2022-11-16T07:08:24.060Z,5
2022-11-16T07:09:38.291Z,5
2022-11-16T07:10:52.529Z,5
2022-11-16T07:12:06.813Z,5
2022-11-16T07:13:21.060Z,5
2022-11-16T07:14:35.284Z,5
2022-11-16T07:15:49.524Z,5
2022-11-16T07:17:03.737Z,5
2022-11-16T07:18:18.052Z,5
2022-11-16T07:19:32.278Z,5
2022-11-16T07:20:46.514Z,5
2022-11-16T07:22:00.731Z,5
2022-11-16T07:23:14.962Z,11
2022-11-16T07:24:29.271Z,11
2022-11-16T07:25:43.499Z,11
2022-11-16T07:26:57.725Z,11
2022-11-16T07:28:11.965Z,11
2022-11-16T07:29:26.193Z,11
2022-11-16T07:30:40.492Z,11
2022-11-16T07:31:54.726Z,11
2022-11-16T07:33:08.954Z,11
2022-11-16T07:34:23.242Z,16
2022-11-16T07:35:36.572Z,16
2022-11-16T07:36:50.853Z,16
2022-11-16T07:38:04.142Z,22
2022-11-16T07:39:18.379Z,22
2022-11-16T07:40:32.674Z,28
2022-11-16T07:41:46.907Z,28
2022-11-16T07:43:01.141Z,28
2022-11-16T07:44:15.369Z,33
2022-11-16T07:45:29.595Z,33
2022-11-16T07:46:43.906Z,33
2022-11-16T07:47:58.134Z,33
2022-11-16T07:49:12.370Z,39
2022-11-16T07:50:26.591Z,39
2022-11-16T07:51:40.809Z,39
2022-11-16T07:52:55.111Z,45
2022-11-16T07:54:09.367Z,45
2022-11-16T07:55:23.587Z,45
2022-11-16T07:56:37.807Z,50
2022-11-16T07:57:52.045Z,50
2022-11-16T07:59:06.338Z,50
2022-11-16T08:00:20.574Z,56
2022-11-16T08:01:34.810Z,56
2022-11-16T08:02:49.041Z,56
2022-11-16T08:04:03.266Z,39
2022-11-16T08:05:17.565Z,45
2022-11-16T08:06:31.799Z,45
2022-11-16T08:07:46.021Z,45
2022-11-16T08:09:00.313Z,50
2022-11-16T08:10:13.636Z,50
2022-11-16T08:11:27.936Z,67
2022-11-16T08:12:41.284Z,67
2022-11-16T08:13:54.616Z,61
2022-11-16T08:15:08.897Z,45
2022-11-16T08:16:23.176Z,39
2022-11-16T08:17:37.471Z,39
2022-11-16T08:18:51.748Z,39
2022-11-16T08:20:06.047Z,56
2022-11-16T08:21:20.337Z,61
2022-11-16T08:22:33.630Z,73
2022-11-16T08:25:02.149Z,73
2022-11-16T08:26:16.385Z,67
2022-11-16T08:27:30.618Z,84
2022-11-16T08:28:44.853Z,78
2022-11-16T08:29:59.061Z,67
2022-11-16T08:31:13.369Z,61
2022-11-16T08:32:27.606Z,67
2022-11-16T08:33:41.836Z,56
2022-11-16T08:34:56.056Z,45
2022-11-16T08:36:10.290Z,56
2022-11-16T08:37:24.594Z,73
2022-11-16T08:38:38.000Z,90
2022-11-16T08:39:53.056Z,101
2022-11-16T08:41:07.279Z,101
2022-11-16T08:42:21.502Z,101
2022-11-16T08:43:35.815Z,106
2022-11-16T08:44:50.053Z,106
2022-11-16T08:46:04.272Z,101
2022-11-16T08:47:18.497Z,101
2022-11-16T08:48:32.727Z,101
2022-11-16T08:49:47.039Z,106
2022-11-16T08:51:01.266Z,106
2022-11-16T08:52:15.510Z,112
2022-11-16T08:53:29.784Z,112
2022-11-16T08:54:43.118Z,106
2022-11-16T08:55:57.407Z,112
2022-11-16T08:57:10.702Z,135
2022-11-16T08:58:24.919Z,151
2022-11-16T08:59:39.216Z,191
2022-11-16T09:00:53.000Z,236
2022-11-16T09:02:07.690Z,298
2022-11-16T09:03:21.910Z,331
2022-11-16T09:04:36.151Z,298
2022-11-16T09:05:50.447Z,247
2022-11-16T09:07:04.682Z,225
2022-11-16T09:08:18.915Z,191
2022-11-16T09:09:33.130Z,180
2022-11-16T09:10:47.356Z,163
2022-11-16T09:12:01.666Z,112
2022-11-16T09:13:15.908Z,78
2022-11-16T09:14:30.125Z,61
2022-11-16T09:15:44.369Z,67
2022-11-16T09:16:58.588Z,61
2022-11-16T09:18:12.879Z,56
2022-11-16T09:19:27.135Z,45
2022-11-16T09:20:41.349Z,33
2022-11-16T09:21:55.576Z,33
2022-11-16T09:23:09.809Z,28
2022-11-16T09:24:24.110Z,39
2022-11-16T09:25:38.342Z,45
2022-11-16T09:26:52.586Z,78
2022-11-16T09:28:06.860Z,101
2022-11-16T09:29:20.198Z,84
2022-11-16T09:30:34.470Z,56
2022-11-16T09:31:47.780Z,50
2022-11-16T09:33:02.004Z,61
2022-11-16T09:34:16.292Z,61
2022-11-16T09:35:30.543Z,56
2022-11-16T09:36:44.771Z,56
2022-11-16T09:37:58.984Z,50
2022-11-16T09:39:13.214Z,61
2022-11-16T09:40:27.523Z,84
2022-11-16T09:41:41.765Z,84
2022-11-16T09:42:55.998Z,84
2022-11-16T09:44:10.211Z,95
2022-11-16T09:46:38.738Z,123
2022-11-16T09:47:52.979Z,112
2022-11-16T09:49:07.202Z,106
2022-11-16T09:50:21.442Z,112
2022-11-16T09:51:35.656Z,118
2022-11-16T09:52:49.972Z,123
2022-11-16T09:55:18.422Z,112
2022-11-16T09:56:32.663Z,118
2022-11-16T09:57:46.886Z,140
2022-11-16T09:59:01.195Z,157
2022-11-16T10:01:29.648Z,219
2022-11-16T10:02:43.939Z,241
2022-11-16T10:05:11.547Z,292
2022-11-16T10:06:25.840Z,309
2022-11-16T10:07:40.126Z,320
2022-11-16T10:08:54.410Z,253
2022-11-16T10:10:08.715Z,343
2022-11-16T10:11:22.984Z,585
2022-11-16T10:12:36.286Z,551
2022-11-16T10:13:50.516Z,556
2022-11-16T10:15:04.821Z,686
2022-11-16T10:16:19.053Z,601
2022-11-16T10:17:33.278Z,562
2022-11-16T10:18:47.511Z,489
2022-11-16T10:20:01.724Z,376
2022-11-16T10:21:16.025Z,337
2022-11-16T10:22:30.280Z,376
2022-11-16T10:24:58.721Z,354
2022-11-16T10:26:12.952Z,343
2022-11-16T10:27:27.256Z,348
2022-11-16T10:28:41.489Z,354
2022-11-16T10:29:55.729Z,360
2022-11-16T10:31:09.951Z,348
2022-11-16T10:32:24.163Z,354
2022-11-16T10:33:38.474Z,360
2022-11-16T10:34:52.715Z,371
2022-11-16T10:36:06.946Z,371
2022-11-16T10:37:21.171Z,405
2022-11-16T10:38:35.388Z,506
2022-11-16T10:39:49.685Z,517
2022-11-16T10:41:03.928Z,495
2022-11-16T10:42:18.163Z,354
2022-11-16T10:43:32.451Z,371
2022-11-16T10:44:45.781Z,343
2022-11-16T10:46:00.072Z,354
2022-11-16T10:47:13.367Z,365
2022-11-16T10:48:27.597Z,365
2022-11-16T10:50:56.129Z,421
2022-11-16T10:52:10.360Z,450
2022-11-16T10:53:24.588Z,444
2022-11-16T10:54:38.822Z,596
2022-11-16T10:55:53.124Z,646
2022-11-16T10:57:07.346Z,821
2022-11-16T10:58:21.583Z,663
2022-11-16T10:59:35.811Z,1220
2022-11-16T11:00:50.028Z,990
2022-11-16T11:02:04.330Z,1355
2022-11-16T11:03:18.585Z,883
2022-11-16T11:04:32.809Z,781
2022-11-16T11:05:47.025Z,483
2022-11-16T11:07:01.262Z,973
2022-11-16T11:08:15.548Z,483
2022-11-16T11:09:29.806Z,461
2022-11-16T11:10:44.026Z,388
2022-11-16T11:11:58.255Z,348
2022-11-16T11:13:12.482Z,478
2022-11-16T11:14:26.775Z,438
2022-11-16T11:15:41.016Z,753
2022-11-16T11:16:55.255Z,1558
2022-11-16T11:18:09.535Z,1963
2022-11-16T11:19:22.856Z,1243
2022-11-16T11:20:37.144Z,888
2022-11-16T11:21:50.438Z,928
2022-11-16T11:23:04.665Z,967
2022-11-16T11:24:18.959Z,922
2022-11-16T11:25:33.198Z,1260
2022-11-16T11:26:47.441Z,376
2022-11-16T11:28:01.657Z,551
2022-11-16T11:29:15.890Z,691
2022-11-16T11:30:30.186Z,1147
2022-11-16T11:31:44.426Z,1085
2022-11-16T11:34:12.876Z,765
2022-11-16T11:35:27.115Z,781
2022-11-16T11:36:41.410Z,686
2022-11-16T11:37:55.653Z,641
2022-11-16T11:39:09.883Z,551
2022-11-16T11:40:24.108Z,545
2022-11-16T11:41:38.322Z,585
2022-11-16T11:42:52.636Z,540
2022-11-16T11:44:06.862Z,562
2022-11-16T11:45:21.093Z,641
2022-11-16T11:46:35.333Z,748
2022-11-16T11:47:49.552Z,703
2022-11-16T11:49:03.849Z,573
2022-11-16T11:50:18.087Z,590
2022-11-16T11:52:46.598Z,686
2022-11-16T11:53:59.939Z,669
2022-11-16T11:55:14.222Z,680
2022-11-16T11:56:27.522Z,753
2022-11-16T11:57:41.733Z,770
2022-11-16T11:58:56.039Z,770
2022-11-16T12:00:10.277Z,838
2022-11-16T12:01:24.513Z,877
2022-11-16T12:02:38.729Z,922
2022-11-16T12:03:52.955Z,1091
2022-11-16T12:05:07.266Z,939
2022-11-16T12:06:21.500Z,618
2022-11-16T12:07:35.721Z,585
2022-11-16T12:08:49.956Z,635
2022-11-16T12:10:04.173Z,956
2022-11-16T12:11:18.472Z,1125
2022-11-16T12:12:32.715Z,1012
2022-11-16T12:13:46.956Z,691
2022-11-16T12:15:01.179Z,450
2022-11-16T12:16:15.398Z,393
2022-11-16T12:17:29.704Z,365
2022-11-16T12:18:43.937Z,360
2022-11-16T12:19:58.171Z,360
2022-11-16T12:21:12.392Z,354
2022-11-16T12:22:26.625Z,354
2022-11-16T12:23:40.913Z,348
2022-11-16T12:24:55.162Z,343
2022-11-16T12:26:09.384Z,348
2022-11-16T12:27:23.679Z,337
2022-11-16T12:28:36.997Z,331
2022-11-16T12:29:51.289Z,320
2022-11-16T12:31:04.578Z,309
2022-11-16T12:32:18.811Z,303
2022-11-16T12:33:33.102Z,298
2022-11-16T12:37:15.799Z,326
2022-11-16T12:38:30.033Z,326
2022-11-16T12:39:44.333Z,320
2022-11-16T12:40:58.568Z,320
2022-11-16T12:42:12.800Z,320
2022-11-16T12:43:27.028Z,320
2022-11-16T12:44:41.242Z,320
2022-11-16T12:45:55.543Z,315
2022-11-16T12:47:09.801Z,315
2022-11-16T12:48:24.018Z,315
2022-11-16T12:49:38.248Z,309
2022-11-16T12:50:52.466Z,303
2022-11-16T12:52:06.769Z,309
2022-11-16T12:53:21.017Z,315
2022-11-16T12:54:35.000Z,331
2022-11-16T12:55:49.456Z,371
2022-11-16T12:57:03.690Z,365
2022-11-16T12:59:32.228Z,466
2022-11-16T13:00:46.450Z,438
2022-11-16T13:02:00.738Z,506
2022-11-16T13:03:14.031Z,585
2022-11-16T13:05:42.502Z,506
2022-11-16T13:06:56.742Z,478
2022-11-16T13:08:10.956Z,483
2022-11-16T13:09:25.264Z,540
2022-11-16T13:10:39.500Z,506
2022-11-16T13:13:07.957Z,478
2022-11-16T13:14:22.176Z,545
2022-11-16T13:15:36.488Z,523
2022-11-16T13:16:50.724Z,450
2022-11-16T13:18:04.944Z,399
2022-11-16T13:19:19.181Z,337
2022-11-16T13:21:47.706Z,388
2022-11-16T13:23:01.946Z,315
2022-11-16T13:24:16.165Z,326
2022-11-16T13:25:30.400Z,315
2022-11-16T13:26:44.626Z,320
2022-11-16T13:27:58.921Z,292
2022-11-16T13:29:13.171Z,286
2022-11-16T13:30:27.394Z,281
2022-11-16T13:31:41.621Z,292
2022-11-16T13:32:55.851Z,292
2022-11-16T13:34:10.202Z,309
2022-11-16T13:35:24.480Z,331
2022-11-16T13:36:37.788Z,275
2022-11-16T13:39:06.300Z,253
2022-11-16T13:40:20.538Z,247
2022-11-16T13:41:34.780Z,247
2022-11-16T13:42:49.010Z,241
2022-11-16T13:44:03.219Z,230
2022-11-16T13:45:17.527Z,225
2022-11-16T13:46:31.766Z,230
2022-11-16T13:47:46.002Z,225
2022-11-16T13:49:00.221Z,219
2022-11-16T13:50:14.441Z,213
2022-11-16T13:51:28.757Z,208
2022-11-16T13:53:57.210Z,202
2022-11-16T13:55:11.442Z,196
2022-11-16T13:56:25.673Z,185
2022-11-16T13:57:39.975Z,174
2022-11-16T13:58:54.201Z,174
2022-11-16T14:00:08.445Z,168
2022-11-16T14:01:22.666Z,168
2022-11-16T14:02:36.893Z,174
2022-11-16T14:03:51.187Z,180
2022-11-16T14:05:05.426Z,185
2022-11-16T14:06:19.659Z,180
2022-11-16T14:07:33.945Z,174
2022-11-16T14:08:47.273Z,163
2022-11-16T14:10:01.550Z,157
2022-11-16T14:11:14.861Z,157
2022-11-16T14:12:29.084Z,157
2022-11-16T14:13:43.371Z,151
2022-11-16T14:14:57.613Z,146
2022-11-16T14:16:11.847Z,140
2022-11-16T14:17:26.073Z,135
2022-11-16T14:19:54.593Z,123
2022-11-16T14:21:08.846Z,123
2022-11-16T14:23:37.296Z,112
2022-11-16T14:24:51.517Z,101
2022-11-16T14:27:20.069Z,95
2022-11-16T14:28:34.292Z,101
2022-11-16T14:29:48.515Z,106
2022-11-16T14:32:17.045Z,101
2022-11-16T14:34:45.501Z,95
2022-11-16T14:35:59.741Z,95
2022-11-16T14:37:13.954Z,95
2022-11-16T14:38:28.269Z,95
2022-11-16T14:39:42.499Z,95
2022-11-16T14:40:56.726Z,90
2022-11-16T14:42:11.012Z,90
2022-11-16T14:43:24.352Z,90
2022-11-16T14:44:38.638Z,84
2022-11-16T14:45:52.920Z,84
2022-11-16T14:47:06.201Z,78
2022-11-16T14:48:20.511Z,78
2022-11-16T14:49:34.743Z,73
2022-11-16T14:50:48.977Z,67
2022-11-16T14:53:17.428Z,67
2022-11-16T14:54:31.733Z,61
2022-11-16T14:55:45.981Z,61
2022-11-16T14:57:00.203Z,56
2022-11-16T14:58:14.423Z,56
2022-11-16T14:59:28.642Z,56
2022-11-16T15:00:42.947Z,50
2022-11-16T15:01:57.203Z,50
2022-11-16T15:03:11.412Z,45
2022-11-16T15:04:25.649Z,45
2022-11-16T15:05:39.880Z,45
2022-11-16T15:06:54.165Z,45
2022-11-16T15:08:08.419Z,45
2022-11-16T15:09:22.636Z,50
2022-11-16T15:10:36.874Z,45
2022-11-16T15:11:51.086Z,45
2022-11-16T15:13:05.386Z,39
2022-11-16T15:15:33.869Z,39
2022-11-16T15:16:48.078Z,33
2022-11-16T15:18:02.370Z,28
2022-11-16T15:19:16.676Z,22
2022-11-16T15:20:30.945Z,22
2022-11-16T15:21:44.256Z,22
2022-11-16T15:22:58.490Z,16
2022-11-16T15:24:12.779Z,16
2022-11-16T15:25:27.021Z,16
2022-11-16T15:27:55.479Z,11
2022-11-16T15:29:09.710Z,11
2022-11-16T15:30:23.996Z,11
2022-11-16T15:31:38.231Z,11
2022-11-16T15:32:52.477Z,5
2022-11-16T15:34:06.689Z,5
2022-11-16T15:35:20.923Z,5
2022-11-16T15:36:35.224Z,5
2022-11-16T15:37:49.453Z,5
2022-11-16T15:39:03.697Z,0
2022-11-16T15:40:17.919Z,0
2022-11-16T15:41:32.146Z,0
2022-11-16T15:42:46.446Z,0
2022-11-16T15:44:00.683Z,0
2022-11-16T15:45:14.903Z,0
2022-11-16T15:46:29.132Z,0
2022-11-16T15:47:43.365Z,0
2022-11-16T15:48:57.654Z,0
2022-11-16T15:50:11.901Z,0
2022-11-16T15:51:26.128Z,0
2022-11-16T15:52:40.408Z,0
2022-11-16T15:53:53.750Z,0
2022-11-16T15:55:08.022Z,0
2022-11-16T15:56:22.322Z,0
2022-11-16T15:57:35.609Z,0
2022-11-16T15:58:49.897Z,0
2022-11-16T16:00:04.141Z,0
2022-11-16T16:01:18.379Z,0
2022-11-16T16:02:32.608Z,0
2022-11-16T16:03:46.831Z,0
2022-11-16T16:05:01.121Z,0
2022-11-16T16:06:15.365Z,0
2022-11-16T16:07:29.590Z,0
2022-11-16T16:08:43.822Z,0
2022-11-16T16:09:58.097Z,0
2022-11-16T16:11:12.513Z,0
2022-11-16T16:12:26.836Z,0
2022-11-16T16:13:41.058Z,0
2022-11-16T16:14:55.283Z,0
2022-11-16T16:16:09.509Z,0
2022-11-16T16:17:23.814Z,0
2022-11-16T16:18:38.067Z,0
2022-11-16T16:19:52.342Z,0
2022-11-16T16:21:06.617Z,0
2022-11-16T16:22:21.023Z,0
2022-11-16T16:23:35.359Z,0
2022-11-16T16:24:49.629Z,0
2022-11-16T16:26:03.921Z,0
2022-11-16T16:27:18.327Z,0
2022-11-16T16:28:32.705Z,0
2022-11-16T16:29:46.093Z,0
2022-11-16T16:30:59.436Z,0
2022-11-16T16:32:13.757Z,0
2022-11-16T16:33:28.037Z,0
2022-11-16T16:34:42.315Z,0
2022-11-16T16:35:56.731Z,0
2022-11-16T16:37:11.065Z,0
2022-11-16T16:38:25.329Z,0
2022-11-16T16:39:39.619Z,0
2022-11-16T16:40:54.033Z,0
2022-11-16T16:42:08.346Z,0
2022-11-16T16:43:22.622Z,0
2022-11-16T16:44:36.907Z,0
2022-11-16T16:45:51.324Z,0
2022-11-16T16:47:05.642Z,0
2022-11-16T16:48:19.924Z,0
2022-11-16T16:49:34.209Z,0
2022-11-16T16:50:48.615Z,0
2022-11-16T16:52:02.934Z,0
2022-11-16T16:54:31.490Z,0
2022-11-16T16:55:45.894Z,0
2022-11-16T16:57:00.224Z,0
2022-11-16T16:58:14.513Z,0
2022-11-16T16:59:28.775Z,0
2022-11-16T17:00:43.189Z,0
2022-11-16T17:01:57.585Z,0
2022-11-16T17:03:10.962Z,0
2022-11-16T17:04:24.311Z,0
2022-11-16T17:05:38.625Z,0
2022-11-16T17:06:52.905Z,0
2022-11-16T17:08:07.203Z,0
2022-11-16T17:09:21.600Z,0
2022-11-16T17:10:35.924Z,0
2022-11-16T17:11:50.204Z,0
2022-11-16T17:13:04.481Z,0
2022-11-16T17:14:18.897Z,0
2022-11-16T17:15:33.213Z,0
2022-11-16T17:16:47.498Z,0
2022-11-16T17:18:01.788Z,0
2022-11-16T17:19:16.178Z,0
2022-11-16T17:20:30.508Z,0
2022-11-16T17:21:44.793Z,0
2022-11-16T17:22:59.073Z,0
2022-11-16T17:24:13.487Z,0
2022-11-16T17:25:27.791Z,0
2022-11-16T17:26:42.077Z,0
2022-11-16T17:27:56.363Z,0
2022-11-16T17:29:10.763Z,0
2022-11-16T17:30:25.083Z,0
2022-11-16T17:31:39.377Z,0
2022-11-16T17:32:53.658Z,0
2022-11-16T17:34:08.060Z,0
2022-11-16T17:35:22.443Z,0
2022-11-16T17:36:35.829Z,0
2022-11-16T17:37:50.160Z,0
2022-11-16T17:39:04.575Z,0
2022-11-16T17:40:18.918Z,0
2022-11-16T17:41:32.257Z,0
2022-11-16T17:42:46.545Z,0
2022-11-16T17:44:00.954Z,0
2022-11-16T17:46:29.553Z,0
2022-11-16T17:47:43.836Z,0
2022-11-16T17:48:58.248Z,0
2022-11-16T17:50:12.574Z,0
2022-11-16T17:51:26.855Z,0
2022-11-16T17:52:41.127Z,0
2022-11-16T17:53:55.535Z,0
2022-11-16T17:55:09.858Z,0
2022-11-16T17:56:24.128Z,0
2022-11-16T17:58:52.821Z,0
2022-11-16T18:00:07.158Z,0
2022-11-16T18:01:21.426Z,0
2022-11-16T18:02:35.714Z,0
2022-11-16T18:03:50.126Z,0
2022-11-16T18:05:04.434Z,0
2022-11-16T18:06:18.728Z,0
2022-11-16T18:07:33.001Z,0
2022-11-16T18:08:47.410Z,0
2022-11-16T18:10:01.724Z,0
2022-11-16T18:11:16.004Z,0
2022-11-16T18:12:30.343Z,0
2022-11-16T18:13:44.765Z,0
2022-11-16T18:14:59.101Z,0
2022-11-16T18:16:12.449Z,0
2022-11-16T18:17:26.724Z,0
2022-11-16T18:18:41.141Z,0
2022-11-16T18:19:55.463Z,0
2022-11-16T18:21:09.741Z,0
2022-11-16T18:22:24.019Z,0
2022-11-16T18:23:38.419Z,0
2022-11-16T18:24:52.740Z,0
2022-11-16T18:26:07.038Z,0
2022-11-16T18:27:21.305Z,0
2022-11-16T18:28:35.714Z,0
2022-11-16T18:29:50.051Z,0
2022-11-16T18:31:04.315Z,0
2022-11-16T18:32:18.607Z,0
2022-11-16T18:33:33.018Z,0
2022-11-16T18:34:47.341Z,0
2022-11-16T18:36:01.617Z,0
2022-11-16T18:37:15.900Z,0
2022-11-16T18:38:30.301Z,0
2022-11-16T18:39:44.621Z,0
2022-11-16T18:42:13.188Z,0